Revere, Massachusetts
Current Conditions -  °F | °C
As of 3:54 PM on Thursday 18 Dec 2014 (Local Time) from KBOS Reporting Station
Broken Clouds Broken Clouds  
Wind Chill: 36°   Ceiling: 3900
Heat Index: 42°   Visibility: 10mi
Dew Point: 29°   Wind: 10mph
Humidity: 60%   Direction: 280°W
Pressure: 29.8"   Gusts: 20mph
Location:  42.41°N, 71.01°W
Report Text: KBOS 182054Z 28009G17KT 10SM BKN039 06/M02 A2980 RMK AO2 SLP092 T00561017 53013
Loading
Personal Weather Stations






























Interactive Weather Map New forecast layout! Learn more

10-Day Weather Forecast

Advertisements
Track Severe Weather on mobile